Airfield :
LOGIN :

Register | Disclaimer

   EN    FR    IT 

 










Legend :    VFR   Marginal VFR   IFR   Intensive IFR   Very Intensive IFR
Visi :
Ceiling :
>= 8 km
>= 3000ft
5 to 8 km
1000 to 3000 ft
1500m to 5 km
500 to 1000 ft
800 to 1500m
200 to 500 ft
< 800m
< 200 ft
Symbols :   Thunderstorms  Fog  Heavy snow  Heavy precipitations  Wind > 20 kt
SIGMETs :     Misc.  Thunderstorms  Icing  Turbulence  Mountain Waves  Volcanic Ashes







- Airport Elevation : 580 ft
- Download approach charts


LFOA - Avord

CURRENT METAR :
  • 240130Z AUTO 20006KT 9999 OVC028 10/08 Q1026

EXPIRED METARs :
  • 240100Z AUTO 21008KT 9999 OVC029 10/09 Q1026
  • 240030Z AUTO 20007KT 9999 OVC029 10/09 Q1026
  • 240000Z AUTO 20008KT 9999 OVC029 10/09 Q1027
  • 232330Z AUTO 21008KT 9999 OVC030 10/09 Q1027
  • 232300Z AUTO 20007KT 9999 OVC034 10/09 Q1027 TEMPO 1500 BR BKN002

TAF TAF LFOA
Valid from the 23 at 21:00 until the 24 at 21:00 UTC


232000Z 2321/2421 20010KT 9999 SCT012 BKN040
TEMPO 2321/2406 2000 DZRA BKN004
PROB40
TEMPO 2323/2406 1500 BR BKN002
BECMG 2408/2410 SCT015
No reported NOTAMs for that airfield.



MET'MAP, your aeronautical weather chart ! - Copyright ORBIFLY December 2007 - Disclaimer

ORBIFLY MET'MAP TEAM :

Programming & Development : Alexandra Zaïnal
Concept & Development : Baudouin d'Aumeries
Co-Development & Prog : Marc-Olivier Méhu
Technical & hardware support : Manuel Goepfert

Contact : metmap@orbifly.com




SOURCES & CREDITS :

   NOAA